Time;durP1;ratioP1;P1;durP2;ratioP2;P2;SDS_P1;SDS_P2;PMS_P1;PMS_P2;Temp;Humidity;BMP_temperature;BMP_pressure;BME280_temperature;BME280_humidity;BME280_pressure;Samples;Min_cycle;Max_cycle;Signal;HPM_P1;HPM_P2
2022/08/31 00:04:01;;;;;;;4.50;4.07;;;;;;;22.53;55.34;93535.91;4869588;29;20033;-88
2022/08/31 00:06:33;;;;;;;4.75;4.10;;;;;;;22.50;55.52;93543.25;4858926;29;20052;-88
2022/08/31 00:09:13;;;;;;;4.05;3.50;;;;;;;22.50;55.53;93531.50;4860413;29;20061;-88
2022/08/31 00:11:42;;;;;;;4.60;4.20;;;;;;;22.52;55.38;93540.69;4858154;29;20037;-88
2022/08/31 00:14:10;;;;;;;4.32;3.83;;;;;;;22.50;55.39;93535.00;4835833;29;20070;-88
2022/08/31 00:16:57;;;;;;;5.28;3.65;;;;;;;22.50;55.44;93540.50;4802017;29;20081;-88
2022/08/31 00:19:22;;;;;;;5.40;4.20;;;;;;;22.51;55.44;93536.47;4808136;29;20038;-88
2022/08/31 00:21:52;;;;;;;5.75;4.00;;;;;;;22.50;55.62;93551.53;4821040;29;20034;-88
2022/08/31 00:24:32;;;;;;;4.55;4.05;;;;;;;22.50;55.54;93545.28;4801839;29;20043;-88
2022/08/31 00:27:24;;;;;;;4.15;3.47;;;;;;;22.49;55.42;93541.78;4813475;29;20078;-89
2022/08/31 00:29:50;;;;;;;4.00;3.58;;;;;;;22.51;55.44;93542.00;4820432;29;20043;-88
2022/08/31 00:32:27;;;;;;;4.68;4.28;;;;;;;22.49;55.34;93541.78;4797953;29;20047;-89
2022/08/31 00:35:09;;;;;;;4.80;4.13;;;;;;;22.49;55.23;93541.78;4801056;29;20039;-88
2022/08/31 00:37:54;;;;;;;4.00;3.50;;;;;;;22.50;55.41;93548.03;4801143;29;20077;-88
2022/08/31 00:40:28;;;;;;;4.97;3.83;;;;;;;22.49;55.36;93539.03;4800889;29;20030;-88
2022/08/31 00:43:04;;;;;;;4.78;3.88;;;;;;;22.49;55.36;93536.28;4800616;29;20072;-88
2022/08/31 00:45:53;;;;;;;4.47;3.80;;;;;;;22.48;55.45;93526.53;4814536;29;20045;-88
2022/08/31 00:48:19;;;;;;;4.22;3.83;;;;;;;22.50;55.52;93531.50;4811896;29;20034;-88
2022/08/31 00:51:05;;;;;;;4.10;3.70;;;;;;;22.50;55.31;93532.25;4845091;29;20050;-88
2022/08/31 00:53:31;;;;;;;4.50;4.00;;;;;;;22.48;55.34;93532.03;4803476;30;20049;-88
2022/08/31 00:56:19;;;;;;;5.55;3.95;;;;;;;22.49;55.47;93536.28;4788259;30;20047;-88
2022/08/31 00:59:00;;;;;;;4.32;3.55;;;;;;;22.48;55.43;93537.53;4801276;30;20051;-88
2022/08/31 01:01:27;;;;;;;3.88;3.47;;;;;;;22.48;55.43;93528.53;4794410;30;20047;-88
2022/08/31 01:04:08;;;;;;;3.42;3.13;;;;;;;22.47;55.62;93533.31;4801491;29;20055;-88
2022/08/31 01:06:33;;;;;;;4.47;3.55;;;;;;;22.47;55.25;93527.78;4787483;30;20039;-88
2022/08/31 01:08:59;;;;;;;4.15;3.70;;;;;;;22.48;55.47;93531.28;4786874;30;20069;-89
2022/08/31 01:11:25;;;;;;;4.00;3.58;;;;;;;22.47;55.31;93529.81;4780275;30;20044;-89
2022/08/31 01:13:51;;;;;;;4.80;3.38;;;;;;;22.48;55.33;93529.28;4801175;29;20034;-89
2022/08/31 01:16:38;;;;;;;5.45;4.45;;;;;;;22.47;55.36;93533.31;4772959;30;20058;-89
2022/08/31 01:19:06;;;;;;;4.10;3.50;;;;;;;22.47;55.54;93530.56;4802594;30;20040;-88
2022/08/31 01:21:43;;;;;;;3.67;3.13;;;;;;;22.47;55.34;93532.56;4773440;30;20059;-88
2022/08/31 01:24:54;;;;;;;4.68;3.58;;;;;;;22.48;55.43;93531.28;4801668;30;20051;-88
2022/08/31 01:29:45;;;;;;;4.03;3.60;;;;;;;22.48;55.36;93536.81;4883515;23;20045;-88
2022/08/31 01:32:10;;;;;;;4.25;3.85;;;;;;;22.47;55.36;93529.81;4861324;29;20133;-88
2022/08/31 01:34:36;;;;;;;6.18;4.00;;;;;;;22.46;55.19;93531.81;4846014;29;20117;-88
2022/08/31 01:37:07;;;;;;;3.90;3.50;;;;;;;22.46;55.28;93526.31;4861269;29;20052;-88
2022/08/31 01:39:32;;;;;;;4.68;3.60;;;;;;;22.47;55.15;93535.31;4834751;29;20406;-88
2022/08/31 01:41:58;;;;;;;3.70;3.35;;;;;;;22.47;55.54;93527.78;4845743;29;20045;-88
2022/08/31 01:44:29;;;;;;;4.22;3.40;;;;;;;22.47;55.53;93533.31;4862320;29;20045;-88
2022/08/31 01:46:55;;;;;;;4.10;3.38;;;;;;;22.48;55.42;93536.81;4878042;29;20065;-88
2022/08/31 01:49:28;;;;;;;5.40;3.60;;;;;;;22.46;55.45;93531.09;4893828;29;20037;-87
2022/08/31 01:52:00;;;;;;;4.72;3.63;;;;;;;22.47;55.30;93530.56;4893861;29;20066;-88
2022/08/31 01:54:28;;;;;;;3.90;3.50;;;;;;;22.46;55.30;93531.09;4855341;29;20484;-89
2022/08/31 01:56:54;;;;;;;4.43;3.33;;;;;;;22.46;55.37;93533.84;4854047;29;20032;-88
2022/08/31 01:59:20;;;;;;;3.53;3.20;;;;;;;22.46;55.32;93529.06;4829516;29;20409;-88
2022/08/31 02:01:58;;;;;;;3.58;3.10;;;;;;;22.47;55.47;93532.56;4867591;29;20033;-88
2022/08/31 02:04:29;;;;;;;3.70;3.15;;;;;;;22.44;55.73;93525.38;4856865;29;20034;-88
2022/08/31 02:07:19;;;;;;;4.35;3.90;;;;;;;22.44;55.27;93523.34;4826639;29;20110;-88
2022/08/31 02:09:50;;;;;;;3.15;2.83;;;;;;;22.47;55.37;93524.31;4858661;29;20065;-89
2022/08/31 02:12:16;;;;;;;3.70;3.25;;;;;;;22.44;55.33;93514.34;4831132;29;20048;-88
2022/08/31 02:14:44;;;;;;;4.93;3.50;;;;;;;22.45;55.51;93511.06;4860046;29;20041;-88
2022/08/31 02:17:43;;;;;;;3.75;3.08;;;;;;;22.44;55.49;93509.59;4837537;29;20065;-88
2022/08/31 02:20:15;;;;;;;3.53;3.17;;;;;;;22.46;55.56;93509.78;4882114;29;20037;-89
2022/08/31 02:22:41;;;;;;;4.20;3.65;;;;;;;22.45;55.20;93504.81;4878115;29;20041;-88
2022/08/31 02:25:08;;;;;;;4.07;3.65;;;;;;;22.46;55.33;93500.78;4877975;29;20041;-88
2022/08/31 02:27:37;;;;;;;4.47;3.88;;;;;;;22.43;55.47;93507.34;4892904;29;20036;-88
2022/08/31 02:30:15;;;;;;;3.25;2.95;;;;;;;22.45;55.39;93513.81;4854075;29;20053;-88
2022/08/31 02:32:44;;;;;;;3.50;3.13;;;;;;;22.45;55.50;93507.56;4848459;29;20050;-88
2022/08/31 02:35:13;;;;;;;5.20;3.38;;;;;;;22.43;55.31;93504.59;4806569;29;20054;-88
2022/08/31 02:37:40;;;;;;;3.95;3.38;;;;;;;22.44;55.39;93495.81;4789811;29;20043;-88
2022/08/31 02:40:10;;;;;;;3.90;3.30;;;;;;;22.43;55.46;93493.59;4819022;29;20036;-88
2022/08/31 02:42:44;;;;;;;4.13;3.72;;;;;;;22.43;55.47;93493.59;4834113;29;20042;-89
2022/08/31 02:45:10;;;;;;;4.63;3.38;;;;;;;22.45;55.23;93491.03;4828789;29;20046;-89
2022/08/31 02:47:36;;;;;;;4.22;3.33;;;;;;;22.44;55.31;93484.03;4806865;29;20042;-88
2022/08/31 02:50:06;;;;;;;3.35;3.05;;;;;;;22.43;55.55;93490.84;4820910;29;20094;-88
2022/08/31 02:52:32;;;;;;;4.72;2.80;;;;;;;22.43;55.55;93496.34;4836082;29;20026;-88
2022/08/31 02:55:00;;;;;;;3.67;3.30;;;;;;;22.43;55.43;93494.31;4821127;29;20042;-88
2022/08/31 02:57:34;;;;;;;3.75;3.30;;;;;;;22.42;55.32;93500.38;4835712;29;20059;-89
2022/08/31 03:00:00;;;;;;;5.15;2.92;;;;;;;22.43;55.32;93486.06;4839017;29;20041;-88
2022/08/31 03:02:25;;;;;;;3.45;3.05;;;;;;;22.41;55.38;93494.13;4857728;29;20063;-88
2022/08/31 03:04:52;;;;;;;4.93;3.25;;;;;;;22.42;55.51;93494.84;4844185;29;20038;-88
2022/08/31 03:07:26;;;;;;;3.22;2.80;;;;;;;22.42;55.58;93494.84;4825473;29;20038;-88
2022/08/31 03:09:52;;;;;;;3.90;3.20;;;;;;;22.42;55.51;93494.84;4826516;29;20042;-88
2022/08/31 03:12:17;;;;;;;6.10;3.65;;;;;;;22.44;55.46;93497.81;4807794;29;20043;-88
2022/08/31 03:14:43;;;;;;;4.50;3.15;;;;;;;22.40;55.30;93495.41;4799517;29;20510;-88
2022/08/31 03:17:12;;;;;;;3.47;2.88;;;;;;;22.42;55.29;93497.63;4833560;29;20050;-88
2022/08/31 03:19:38;;;;;;;3.30;3.00;;;;;;;22.42;55.39;93497.63;4830506;29;20042;-87
2022/08/31 03:22:04;;;;;;;3.95;3.20;;;;;;;22.45;55.19;93493.78;4874093;29;20114;-88
2022/08/31 03:24:37;;;;;;;5.80;3.28;;;;;;;22.40;55.35;93487.13;4877555;29;20100;-88
2022/08/31 03:27:02;;;;;;;4.22;3.00;;;;;;;22.45;55.41;93496.53;4893443;29;20052;-88
2022/08/31 03:29:27;;;;;;;4.22;3.50;;;;;;;22.42;55.19;93492.09;4893316;29;20072;-88
2022/08/31 03:31:53;;;;;;;3.50;3.20;;;;;;;22.41;55.41;93485.13;4861152;29;20053;-88
2022/08/31 03:34:18;;;;;;;3.55;3.15;;;;;;;22.43;55.15;93488.06;4892837;29;20374;-88
2022/08/31 03:37:01;;;;;;;4.47;3.13;;;;;;;22.43;55.27;93493.59;4892072;29;20043;-88
2022/08/31 03:39:35;;;;;;;4.07;3.00;;;;;;;22.41;55.44;93488.59;4892020;29;20057;-88
2022/08/31 03:42:02;;;;;;;4.18;3.10;;;;;;;22.44;55.32;93492.31;4891665;29;20033;-88
2022/08/31 03:44:28;;;;;;;4.25;3.10;;;;;;;22.41;55.45;93488.59;4864577;29;20696;-89
2022/08/31 03:46:56;;;;;;;21.90;4.88;;;;;;;22.43;55.34;93491.56;4822227;29;20561;-91
2022/08/31 03:49:22;;;;;;;4.68;3.40;;;;;;;22.42;55.18;93486.59;4838875;29;20057;-90
2022/08/31 03:51:48;;;;;;;3.72;3.10;;;;;;;22.40;55.57;93481.63;4842586;29;20038;-88
2022/08/31 03:54:17;;;;;;;3.00;2.67;;;;;;;22.41;55.52;93483.09;4841466;29;20052;-89
2022/08/31 03:56:57;;;;;;;5.80;3.10;;;;;;;22.42;55.28;93470.81;4830664;29;20038;-86
2022/08/31 03:59:23;;;;;;;3.75;2.83;;;;;;;22.43;55.42;93482.56;4839990;29;20056;-87
2022/08/31 04:01:49;;;;;;;4.05;2.97;;;;;;;22.44;55.18;93479.28;4830192;29;20054;-88
2022/08/31 04:04:16;;;;;;;4.70;3.20;;;;;;;22.43;55.62;93486.06;4833304;29;20050;-87
2022/08/31 04:06:44;;;;;;;4.18;3.40;;;;;;;22.40;55.26;93481.63;4815080;29;20050;-87
2022/08/31 04:09:16;;;;;;;5.15;3.00;;;;;;;22.43;55.40;93491.56;4828806;29;20045;-85
2022/08/31 04:11:43;;;;;;;8.23;3.22;;;;;;;22.41;55.15;93487.88;4837891;29;20046;-86
2022/08/31 04:14:17;;;;;;;6.65;3.15;;;;;;;22.34;54.85;93496.78;4836238;29;20058;-86
2022/08/31 04:16:52;;;;;;;8.75;3.63;;;;;;;22.32;54.52;93491.06;4821417;29;20042;-88
2022/08/31 04:19:21;;;;;;;10.88;3.78;;;;;;;22.33;54.10;93498.78;4839937;29;20459;-87
2022/08/31 04:21:48;;;;;;;5.82;3.70;;;;;;;22.26;53.79;93498.72;4839229;29;20102;-89
2022/08/31 04:24:16;;;;;;;5.78;3.95;;;;;;;22.14;54.22;93504.47;4827349;29;20597;-87
2022/08/31 04:26:53;;;;;;;7.88;3.80;;;;;;;22.12;53.98;93506.28;4875570;29;20081;-87
2022/08/31 04:31:45;;;;;;;5.40;4.32;;;;;;;22.01;54.08;93493.50;4902207;23;20049;-86
2022/08/31 04:34:11;;;;;;;10.00;4.60;;;;;;;22.04;53.31;93506.19;4871609;29;20274;-85
2022/08/31 04:36:46;;;;;;;5.82;4.55;;;;;;;22.03;53.41;93504.72;4845695;29;20059;-86
2022/08/31 04:39:12;;;;;;;4.85;4.10;;;;;;;22.02;53.49;93499.75;4844766;29;20049;-87
2022/08/31 04:41:39;;;;;;;13.98;8.60;;;;;;;21.91;53.54;93508.94;4845254;29;20052;-87
2022/08/31 04:44:12;;;;;;;13.40;9.48;;;;;;;21.93;53.11;93509.13;4867960;29;20049;-90
2022/08/31 04:46:38;;;;;;;15.40;9.40;;;;;;;21.95;52.92;93514.13;4882235;29;20101;-91
2022/08/31 04:49:09;;;;;;;10.90;8.48;;;;;;;21.91;52.67;93508.94;4893719;29;20049;-87
2022/08/31 04:51:37;;;;;;;17.05;9.13;;;;;;;21.82;52.85;93503.88;4890896;23;20059;-89
2022/08/31 04:54:04;;;;;;;11.15;7.85;;;;;;;21.80;52.73;93507.16;4861357;29;20067;-93
2022/08/31 04:56:31;;;;;;;12.85;8.95;;;;;;;21.83;52.60;93508.84;4866166;29;20049;-93
2022/08/31 04:59:05;;;;;;;20.92;9.55;;;;;;;21.77;53.00;93513.72;4837866;29;20037;-90
2022/08/31 05:01:37;;;;;;;17.17;10.20;;;;;;;21.79;52.92;93508.41;4848735;29;20048;-90
2022/08/31 05:04:03;;;;;;;17.95;8.32;;;;;;;21.59;51.98;93511.81;4856379;29;20129;-88
2022/08/31 05:06:29;;;;;;;20.10;7.50;;;;;;;21.49;51.91;93508.75;4888494;23;20080;-87
2022/08/31 05:09:02;;;;;;;29.42;13.18;;;;;;;21.43;51.65;93519.13;4842618;29;20176;-92
2022/08/31 05:11:28;;;;;;;35.03;19.77;;;;;;;21.19;51.88;93525.53;4839290;29;20927;-89
2022/08/31 05:14:04;;;;;;;60.03;29.70;;;;;;;21.27;51.95;93519.41;4857413;29;20134;-87
2022/08/31 05:16:30;;;;;;;49.75;24.50;;;;;;;21.19;51.88;93519.28;4851618;24;20081;-86
2022/08/31 05:18:56;;;;;;;49.88;20.50;;;;;;;21.09;51.97;93523.69;4840019;29;20058;-90
2022/08/31 05:21:28;;;;;;;69.07;34.15;;;;;;;20.97;52.01;93525.16;4843444;29;20133;-87
2022/08/31 05:23:56;;;;;;;86.95;40.17;;;;;;;20.92;52.04;93525.97;4859448;29;20046;-91
2022/08/31 05:26:23;;;;;;;108.47;28.63;;;;;;;20.83;52.54;93521.59;4858531;29;20042;-89
2022/08/31 05:28:48;;;;;;;60.70;20.23;;;;;;;20.89;52.49;93530.50;4864520;29;20050;-88
2022/08/31 05:31:14;;;;;;;63.10;18.58;;;;;;;20.94;52.06;93535.19;4837054;29;20060;-88
2022/08/31 05:33:40;;;;;;;30.80;15.43;;;;;;;20.97;52.57;93539.63;4850906;29;20046;-89
2022/08/31 05:36:06;;;;;;;33.97;15.95;;;;;;;21.10;52.06;93534.16;4854038;29;20064;-89
2022/08/31 05:38:32;;;;;;;44.83;21.65;;;;;;;21.15;52.13;93532.59;4866203;29;20065;-96
2022/08/31 05:40:58;;;;;;;40.83;20.30;;;;;;;21.19;52.06;93519.28;4861211;23;20131;-89
2022/08/31 05:43:23;;;;;;;44.33;18.05;;;;;;;21.22;51.90;93520.25;4853071;29;20066;-87
2022/08/31 05:45:49;;;;;;;78.35;36.22;;;;;;;21.17;51.79;93524.56;4868157;29;20040;-91
2022/08/31 05:48:16;;;;;;;102.05;50.40;;;;;;;21.23;51.88;93527.22;4852516;29;20613;-89
2022/08/31 05:50:42;;;;;;;38.75;19.67;;;;;;;21.17;52.00;93527.31;4871186;29;20129;-89
2022/08/31 05:53:18;;;;;;;53.25;28.75;;;;;;;21.23;51.87;93525.22;4840337;29;20045;-91
2022/08/31 05:55:44;;;;;;;64.00;25.95;;;;;;;21.27;51.49;93533.16;4848116;29;20413;-89
2022/08/31 05:58:10;;;;;;;79.40;39.63;;;;;;;21.35;51.55;93532.00;4865604;29;20048;-89
2022/08/31 06:00:38;;;;;;;53.22;22.70;;;;;;;21.22;51.90;93528.50;4885323;29;20055;-92
2022/08/31 06:03:05;;;;;;;51.38;21.20;;;;;;;21.18;52.40;93529.53;4851240;29;20079;-90
2022/08/31 06:05:30;;;;;;;40.20;20.17;;;;;;;21.28;52.26;93535.38;4822579;29;20058;-91
2022/08/31 06:08:05;;;;;;;50.42;20.23;;;;;;;21.36;51.97;93521.75;4818767;29;20061;-90
2022/08/31 06:10:31;;;;;;;27.17;14.23;;;;;;;21.24;51.91;93526.69;4816132;29;20042;-89
2022/08/31 06:13:00;;;;;;;32.83;17.55;;;;;;;21.31;52.03;93517.09;4843858;29;20038;-88
2022/08/31 06:15:27;;;;;;;23.77;14.40;;;;;;;21.34;51.77;93516.03;4830775;29;20091;-90
2022/08/31 06:17:53;;;;;;;24.88;16.63;;;;;;;21.33;51.78;93525.56;4808233;29;20114;-93
2022/08/31 06:20:19;;;;;;;27.25;16.70;;;;;;;21.32;51.77;93530.31;4821239;29;20050;-93
2022/08/31 06:22:45;;;;;;;37.08;26.05;;;;;;;21.30;51.96;93527.34;4791440;29;20426;-93
2022/08/31 06:25:18;;;;;;;23.48;14.27;;;;;;;21.23;51.92;93532.72;4794238;29;20081;-89
2022/08/31 06:27:49;;;;;;;19.13;12.35;;;;;;;21.21;51.66;93527.78;4838066;29;20042;-87
2022/08/31 06:30:18;;;;;;;16.10;10.63;;;;;;;21.26;51.82;93537.16;4826140;29;21135;-92
2022/08/31 06:32:46;;;;;;;16.10;10.95;;;;;;;21.19;52.18;93533.03;4827339;29;20059;-86
2022/08/31 06:35:12;;;;;;;32.47;15.73;;;;;;;21.29;51.76;93525.13;4817707;29;20083;-87
2022/08/31 06:37:38;;;;;;;27.50;14.05;;;;;;;21.17;51.78;93528.06;4853062;29;20049;-87
2022/08/31 06:40:04;;;;;;;30.85;15.02;;;;;;;21.20;52.02;93537.28;4835901;29;20049;-88
2022/08/31 06:42:37;;;;;;;28.92;14.20;;;;;;;21.28;51.72;93532.63;4851740;29;20473;-86
2022/08/31 06:45:03;;;;;;;30.35;12.60;;;;;;;21.18;52.04;93537.03;4872989;29;20080;-87
2022/08/31 06:47:29;;;;;;;42.80;20.52;;;;;;;21.24;51.98;93534.94;4846678;29;20045;-88
2022/08/31 06:49:56;;;;;;;65.32;30.08;;;;;;;21.27;51.76;93535.91;4865296;29;20539;-88
2022/08/31 06:52:22;;;;;;;57.88;21.23;;;;;;;21.18;51.72;93539.78;4845973;29;20048;-88
2022/08/31 06:54:48;;;;;;;58.63;32.92;;;;;;;21.17;51.66;93538.31;4856204;29;20070;-92
2022/08/31 06:57:14;;;;;;;57.63;31.13;;;;;;;21.21;51.83;93544.28;4857565;29;20048;-90
2022/08/31 06:59:39;;;;;;;73.00;40.10;;;;;;;21.23;51.89;93533.47;4854687;29;20055;-88
2022/08/31 07:02:05;;;;;;;68.63;38.15;;;;;;;21.23;51.73;93527.97;4865091;29;20048;-90
2022/08/31 07:04:34;;;;;;;54.90;30.98;;;;;;;21.14;51.96;93533.84;4847844;29;20061;-92
2022/08/31 07:06:59;;;;;;;53.78;27.17;;;;;;;21.05;52.26;93532.25;4834563;29;20523;-88
2022/08/31 07:09:25;;;;;;;60.28;24.58;;;;;;;21.09;52.06;93531.94;4829167;29;20037;-87
2022/08/31 07:11:53;;;;;;;53.80;23.65;;;;;;;21.12;52.13;93531.63;4835215;29;20040;-94
2022/08/31 07:14:21;;;;;;;43.28;23.42;;;;;;;21.05;52.01;93540.47;4860112;29;20132;-88
2022/08/31 07:16:46;;;;;;;57.00;29.65;;;;;;;21.08;52.00;93533.94;4830118;29;20097;-87
2022/08/31 07:19:12;;;;;;;75.65;36.38;;;;;;;21.07;52.23;93528.97;4852907;29;20045;-86
2022/08/31 07:21:43;;;;;;;107.47;53.13;;;;;;;20.97;52.34;93539.63;4841657;29;20038;-87
2022/08/31 07:24:09;;;;;;;90.13;46.78;;;;;;;20.94;52.08;93535.19;4838456;29;20108;-88
2022/08/31 07:26:48;;;;;;;71.20;37.05;;;;;;;21.03;51.76;93539.53;4858851;29;20049;-87
2022/08/31 07:29:15;;;;;;;66.80;31.73;;;;;;;21.08;51.94;93535.94;4827929;29;20108;-89
2022/08/31 07:31:46;;;;;;;63.35;31.48;;;;;;;20.96;52.35;93537.41;4841157;29;20076;-89
2022/08/31 07:34:19;;;;;;;61.33;28.35;;;;;;;20.98;52.36;93535.63;4853410;29;20048;-85
2022/08/31 07:42:18;;;;;;;47.50;20.73;;;;;;;21.02;52.33;93544.28;4835159;29;20295;-88
2022/08/31 07:44:47;;;;;;;34.15;18.45;;;;;;;21.02;52.28;93549.03;4819460;29;20114;-90
2022/08/31 07:47:13;;;;;;;32.30;16.60;;;;;;;20.96;52.45;93543.66;4799105;29;20047;-88
2022/08/31 07:49:43;;;;;;;41.63;18.20;;;;;;;20.98;52.44;93551.38;4794765;29;20050;-88
2022/08/31 07:52:11;;;;;;;38.85;19.60;;;;;;;20.96;52.38;93551.91;4786790;29;20042;-88
2022/08/31 07:54:36;;;;;;;45.00;19.67;;;;;;;21.01;52.52;93548.28;4795955;29;20129;-87
2022/08/31 07:57:03;;;;;;;44.80;19.15;;;;;;;21.13;52.19;93546.84;4811155;29;20034;-91
2022/08/31 07:59:31;;;;;;;42.90;20.02;;;;;;;20.99;52.77;93550.09;4810388;29;20130;-87
2022/08/31 08:02:00;;;;;;;39.80;19.60;;;;;;;20.94;52.54;93548.94;4773227;29;20074;-90
2022/08/31 08:04:26;;;;;;;42.22;17.77;;;;;;;20.92;52.58;93550.72;4783636;29;20070;-90
2022/08/31 08:06:55;;;;;;;30.98;16.23;;;;;;;20.91;52.81;93551.97;4793593;29;20092;-91
2022/08/31 08:09:22;;;;;;;36.67;17.23;;;;;;;20.98;52.65;93551.38;4801464;29;20050;-89
2022/08/31 08:11:48;;;;;;;30.52;15.90;;;;;;;20.95;52.60;93549.66;4807971;29;20142;-92
2022/08/31 08:14:15;;;;;;;30.80;15.45;;;;;;;20.85;53.11;93549.31;4783121;29;20519;-91
2022/08/31 08:16:41;;;;;;;33.00;15.25;;;;;;;20.93;53.13;93558.44;4832873;29;20038;-89
2022/08/31 08:19:06;;;;;;;29.95;16.15;;;;;;;20.88;53.08;93553.75;4847534;29;20042;-85
2022/08/31 08:21:33;;;;;;;27.90;13.75;;;;;;;20.96;52.96;93560.13;4853220;29;20042;-87
2022/08/31 08:24:18;;;;;;;27.20;12.65;;;;;;;20.97;52.97;93561.63;4849020;29;20044;-90
2022/08/31 08:26:47;;;;;;;29.23;13.57;;;;;;;21.02;52.75;93557.28;4838269;29;20076;-95
2022/08/31 08:29:13;;;;;;;26.17;12.02;;;;;;;20.96;53.14;93562.16;4835658;29;20049;-90
2022/08/31 08:31:38;;;;;;;23.95;10.88;;;;;;;20.90;53.22;93569.72;4816455;29;20089;-89
2022/08/31 08:34:12;;;;;;;22.92;9.93;;;;;;;20.85;53.39;93563.78;4828790;29;20038;-90
2022/08/31 08:36:44;;;;;;;41.13;15.77;;;;;;;20.91;53.40;93554.72;4898537;23;20054;-91
2022/08/31 08:39:10;;;;;;;41.45;17.00;;;;;;;20.86;53.43;93570.03;4881478;29;20097;-90
2022/08/31 08:41:36;;;;;;;38.22;15.43;;;;;;;20.86;53.79;93570.03;4845091;29;20053;-89
2022/08/31 08:44:03;;;;;;;23.58;11.13;;;;;;;20.81;53.82;93570.84;4841866;29;20130;-94
2022/08/31 08:46:47;;;;;;;27.13;11.40;;;;;;;20.88;53.53;93565.50;4826469;29;20495;-88
2022/08/31 08:49:15;;;;;;;24.63;9.10;;;;;;;20.98;53.64;93578.84;4828256;29;20060;-86
2022/08/31 08:51:40;;;;;;;19.15;9.43;;;;;;;20.94;53.73;93573.66;4877823;29;20041;-90
2022/08/31 08:54:09;;;;;;;23.63;14.93;;;;;;;20.93;53.95;93587.91;4862553;29;20089;-92
2022/08/31 08:56:45;;;;;;;28.98;16.00;;;;;;;20.88;53.97;93581.25;4840648;29;20042;-92
2022/08/31 08:59:11;;;;;;;23.80;12.13;;;;;;;20.88;54.33;93584.00;4848306;29;20061;-88
2022/08/31 09:01:37;;;;;;;24.70;10.35;;;;;;;20.92;54.19;93583.69;4842145;29;20037;-88
2022/08/31 09:04:29;;;;;;;25.80;10.70;;;;;;;20.99;53.88;93583.09;4855564;29;20036;-90
2022/08/31 09:07:03;;;;;;;35.13;16.83;;;;;;;20.97;53.87;93593.84;4862824;29;20046;-90
2022/08/31 09:09:44;;;;;;;19.58;11.80;;;;;;;20.89;54.22;93590.97;4863638;29;20044;-89
2022/08/31 09:12:21;;;;;;;20.17;11.57;;;;;;;20.81;54.61;93592.81;4867371;29;20048;-93
2022/08/31 09:14:58;;;;;;;20.75;9.63;;;;;;;20.89;54.38;93590.97;4858702;29;20049;-94
2022/08/31 09:17:35;;;;;;;20.80;10.68;;;;;;;20.79;54.57;93595.34;4866204;29;20132;-93
2022/08/31 09:20:02;;;;;;;31.65;18.25;;;;;;;20.86;54.35;93601.00;4853213;29;20069;-90
2022/08/31 09:22:48;;;;;;;22.42;11.02;;;;;;;20.87;54.35;93593.50;4859933;29;20113;-93
2022/08/31 09:25:19;;;;;;;39.60;23.30;;;;;;;20.86;54.30;93598.25;4879881;29;20122;-91
2022/08/31 09:27:55;;;;;;;45.17;23.25;;;;;;;20.93;54.23;93588.66;4855939;29;20411;-89
2022/08/31 09:30:39;;;;;;;57.00;29.65;;;;;;;20.91;54.26;93591.19;4859339;29;20047;-91
2022/08/31 09:33:05;;;;;;;76.82;44.95;;;;;;;20.85;54.42;93596.75;4846787;29;20036;-86
2022/08/31 09:35:40;;;;;;;88.25;39.13;;;;;;;20.92;54.32;93591.94;4850771;29;20037;-91
2022/08/31 09:38:09;;;;;;;92.28;39.80;;;;;;;20.98;54.12;93598.84;4880562;29;20041;-94
2022/08/31 09:40:51;;;;;;;67.57;36.38;;;;;;;20.90;54.61;93597.94;4851655;29;20068;-90
2022/08/31 09:43:26;;;;;;;60.28;30.13;;;;;;;20.92;54.59;93606.41;4866945;29;20076;-91
2022/08/31 09:46:03;;;;;;;49.08;28.00;;;;;;;20.91;54.59;93604.94;4910011;29;20511;-93
2022/08/31 09:48:44;;;;;;;44.03;22.92;;;;;;;20.90;54.42;93602.69;4871414;29;20117;-93
2022/08/31 09:51:23;;;;;;;44.47;22.70;;;;;;;20.95;54.36;93604.63;4870572;29;20125;-92
2022/08/31 09:56:50;;;;;;;38.15;20.48;;;;;;;20.88;54.35;93611.47;4865417;29;20209;-91
2022/08/31 09:59:28;;;;;;;34.55;20.50;;;;;;;20.96;54.19;93604.09;4839414;29;20052;-92
2022/08/31 10:01:54;;;;;;;35.67;18.52;;;;;;;21.01;54.12;93606.00;4852237;29;20045;-88
2022/08/31 10:04:25;;;;;;;33.13;15.45;;;;;;;20.96;54.44;93615.09;4845559;29;20530;-88
2022/08/31 10:07:06;;;;;;;21.10;13.88;;;;;;;21.01;54.60;93611.50;4846008;29;20056;-91
2022/08/31 10:09:53;;;;;;;30.73;13.25;;;;;;;21.05;54.44;93611.22;4882076;29;20090;-86
2022/08/31 10:12:37;;;;;;;25.70;12.57;;;;;;;21.11;54.28;93612.63;4846496;29;20034;-87
2022/08/31 10:15:05;;;;;;;19.15;11.25;;;;;;;21.06;54.42;93615.44;4868823;29;20045;-89
2022/08/31 10:17:34;;;;;;;16.40;11.13;;;;;;;21.08;54.17;93623.91;4855124;29;20559;-86
2022/08/31 10:20:07;;;;;;;15.33;9.53;;;;;;;21.06;54.27;93631.94;4845745;29;20067;-87
2022/08/31 10:22:43;;;;;;;13.55;8.30;;;;;;;21.07;54.50;93631.41;4850999;29;20276;-88
2022/08/31 10:25:19;;;;;;;13.73;7.45;;;;;;;21.09;54.17;93628.88;4868553;29;20380;-87
2022/08/31 10:28:05;;;;;;;18.02;7.80;;;;;;;21.14;54.02;93643.81;4833248;29;20097;-91
2022/08/31 10:30:51;;;;;;;15.93;7.57;;;;;;;21.09;54.49;93641.88;4863796;29;20045;-87
2022/08/31 10:33:20;;;;;;;10.88;6.85;;;;;;;21.11;54.01;93642.09;4857253;29;20087;-87
2022/08/31 10:35:57;;;;;;;11.65;6.60;;;;;;;21.13;54.20;93637.56;4885837;29;20048;-91
2022/08/31 10:38:36;;;;;;;14.95;6.72;;;;;;;21.13;53.82;93637.56;4867510;29;20077;-87
2022/08/31 10:41:05;;;;;;;14.60;7.40;;;;;;;21.19;54.01;93640.25;4870769;29;20052;-87
2022/08/31 10:43:44;;;;;;;9.45;6.00;;;;;;;21.17;54.00;93637.28;4852702;29;20041;-86
2022/08/31 10:46:10;;;;;;;8.65;5.28;;;;;;;21.12;53.81;93641.59;4865998;29;20467;-88
2022/08/31 10:48:42;;;;;;;10.55;5.90;;;;;;;21.14;53.86;93633.56;4851640;29;20048;-89
2022/08/31 10:51:21;;;;;;;6.97;4.93;;;;;;;21.16;53.58;93635.78;4851098;29;20071;-88
2022/08/31 10:54:06;;;;;;;73.55;33.95;;;;;;;21.16;53.90;93641.28;4860611;29;20029;-86
2022/08/31 10:56:49;;;;;;;53.90;32.50;;;;;;;21.13;54.06;93640.31;4874394;23;20045;-86
2022/08/31 10:59:29;;;;;;;46.65;27.95;;;;;;;21.16;53.93;93642.03;4842802;29;20042;-86
2022/08/31 11:01:58;;;;;;;38.30;22.98;;;;;;;21.16;53.79;93638.53;4858689;29;20520;-92
2022/08/31 11:04:54;;;;;;;28.58;19.40;;;;;;;21.15;53.78;93640.53;4872283;29;20489;-88
2022/08/31 11:07:37;;;;;;;66.38;37.92;;;;;;;21.13;53.64;93632.06;4851578;29;20062;-86
2022/08/31 11:10:42;;;;;;;92.13;50.78;;;;;;;21.19;53.84;93634.75;4845875;29;20450;-89
2022/08/31 11:13:35;;;;;;;88.10;40.33;;;;;;;21.11;53.97;93647.59;4810514;29;20571;-89
2022/08/31 11:16:31;;;;;;;88.57;42.55;;;;;;;21.12;53.97;93643.59;4818367;29;20058;-92
2022/08/31 11:19:30;;;;;;;74.22;38.08;;;;;;;21.11;54.08;93642.09;4799961;29;20548;-89
2022/08/31 11:22:36;;;;;;;96.50;57.33;;;;;;;21.08;54.51;93640.41;4822136;29;20103;-89
2022/08/31 11:25:29;;;;;;;83.68;48.20;;;;;;;21.07;54.43;93647.91;4830221;29;20442;-92
2022/08/31 11:28:00;;;;;;;62.35;37.67;;;;;;;21.11;54.48;93645.59;4841033;29;20125;-92
2022/08/31 11:30:40;;;;;;;51.55;31.52;;;;;;;21.10;54.60;93641.38;4777032;29;20125;-92
2022/08/31 11:33:18;;;;;;;47.13;28.25;;;;;;;21.02;54.76;93645.97;4812093;29;20072;-91
2022/08/31 11:35:59;;;;;;;38.25;21.90;;;;;;;21.09;54.48;93641.88;4806373;29;20046;-91
2022/08/31 11:38:56;;;;;;;30.38;20.02;;;;;;;21.10;54.56;93651.63;4830263;29;20046;-87
2022/08/31 11:41:30;;;;;;;37.13;19.13;;;;;;;21.09;54.44;93653.63;4811339;29;20054;-88
2022/08/31 11:43:56;;;;;;;36.17;17.92;;;;;;;20.86;55.10;93642.22;4847448;29;20049;-89
2022/08/31 11:46:24;;;;;;;39.28;18.35;;;;;;;20.95;54.89;93645.84;4829447;29;20394;-88
2022/08/31 11:48:52;;;;;;;59.88;32.30;;;;;;;20.95;54.84;93651.34;4879885;29;20052;-87
2022/08/31 11:51:41;;;;;;;44.35;23.58;;;;;;;20.95;55.02;93649.34;4870774;29;20042;-88
2022/08/31 11:54:25;;;;;;;36.78;20.33;;;;;;;20.99;55.00;93651.78;4865682;29;20117;-85
2022/08/31 11:56:53;;;;;;;28.52;17.45;;;;;;;21.00;54.85;93653.28;4861720;29;20045;-91
2022/08/31 11:59:33;;;;;;;30.70;16.52;;;;;;;21.06;54.80;93648.44;4830758;29;20039;-86
2022/08/31 12:02:19;;;;;;;63.90;18.38;;;;;;;21.08;54.50;93651.41;4859707;29;20041;-84